sensor_id;sensor_type;location;lat;lon;timestamp;P1;durP1;ratioP1;P2;durP2;ratioP2
55483;SDS011;41345;51.704;5.146;2023-03-01T00:02:00;14.57;;;9.60;;
55483;SDS011;41345;51.704;5.146;2023-03-01T00:07:01;14.75;;;10.30;;
55483;SDS011;41345;51.704;5.146;2023-03-01T00:12:01;16.33;;;10.60;;
55483;SDS011;41345;51.704;5.146;2023-03-01T00:17:02;16.77;;;10.48;;
55483;SDS011;41345;51.704;5.146;2023-03-01T00:22:02;16.83;;;10.48;;
55483;SDS011;41345;51.704;5.146;2023-03-01T00:27:02;17.83;;;10.68;;
55483;SDS011;41345;51.704;5.146;2023-03-01T00:32:03;15.55;;;10.38;;
55483;SDS011;41345;51.704;5.146;2023-03-01T00:37:03;13.38;;;9.43;;
55483;SDS011;41345;51.704;5.146;2023-03-01T00:42:05;13.98;;;9.50;;
55483;SDS011;41345;51.704;5.146;2023-03-01T00:47:05;14.43;;;9.98;;
55483;SDS011;41345;51.704;5.146;2023-03-01T00:52:05;16.38;;;10.15;;
55483;SDS011;41345;51.704;5.146;2023-03-01T00:57:06;15.95;;;10.50;;
55483;SDS011;41345;51.704;5.146;2023-03-01T01:02:06;16.17;;;9.93;;
55483;SDS011;41345;51.704;5.146;2023-03-01T01:07:06;14.73;;;10.35;;
55483;SDS011;41345;51.704;5.146;2023-03-01T01:12:07;14.45;;;9.07;;
55483;SDS011;41345;51.704;5.146;2023-03-01T01:17:07;14.65;;;9.82;;
55483;SDS011;41345;51.704;5.146;2023-03-01T01:22:07;14.88;;;8.25;;
55483;SDS011;41345;51.704;5.146;2023-03-01T01:27:08;14.23;;;9.63;;
55483;SDS011;41345;51.704;5.146;2023-03-01T01:32:08;15.17;;;8.87;;
55483;SDS011;41345;51.704;5.146;2023-03-01T01:37:08;14.30;;;9.85;;
55483;SDS011;41345;51.704;5.146;2023-03-01T01:42:12;15.43;;;11.13;;
55483;SDS011;41345;51.704;5.146;2023-03-01T01:47:18;16.55;;;10.52;;
55483;SDS011;41345;51.704;5.146;2023-03-01T01:57:34;16.67;;;12.00;;
55483;SDS011;41345;51.704;5.146;2023-03-01T02:02:36;17.10;;;12.10;;
55483;SDS011;41345;51.704;5.146;2023-03-01T02:07:38;17.15;;;11.45;;
55483;SDS011;41345;51.704;5.146;2023-03-01T02:12:39;16.73;;;11.70;;
55483;SDS011;41345;51.704;5.146;2023-03-01T02:17:39;16.73;;;11.63;;
55483;SDS011;41345;51.704;5.146;2023-03-01T02:22:40;16.75;;;11.43;;
55483;SDS011;41345;51.704;5.146;2023-03-01T02:27:51;17.73;;;11.55;;
55483;SDS011;41345;51.704;5.146;2023-03-01T02:32:54;17.08;;;11.45;;
55483;SDS011;41345;51.704;5.146;2023-03-01T02:38:02;17.70;;;11.30;;
55483;SDS011;41345;51.704;5.146;2023-03-01T02:43:04;15.27;;;11.10;;
55483;SDS011;41345;51.704;5.146;2023-03-01T02:48:06;15.20;;;11.55;;
55483;SDS011;41345;51.704;5.146;2023-03-01T02:53:11;15.25;;;11.10;;
55483;SDS011;41345;51.704;5.146;2023-03-01T02:58:13;17.20;;;11.40;;
55483;SDS011;41345;51.704;5.146;2023-03-01T03:03:13;17.15;;;11.57;;
55483;SDS011;41345;51.704;5.146;2023-03-01T03:08:15;14.95;;;11.00;;
55483;SDS011;41345;51.704;5.146;2023-03-01T03:13:23;19.40;;;11.70;;
55483;SDS011;41345;51.704;5.146;2023-03-01T03:18:28;17.80;;;11.88;;
55483;SDS011;41345;51.704;5.146;2023-03-01T03:23:28;15.57;;;10.38;;
55483;SDS011;41345;51.704;5.146;2023-03-01T03:28:30;16.50;;;11.25;;
55483;SDS011;41345;51.704;5.146;2023-03-01T03:33:31;17.98;;;11.65;;
55483;SDS011;41345;51.704;5.146;2023-03-01T03:38:31;16.33;;;11.38;;
55483;SDS011;41345;51.704;5.146;2023-03-01T03:43:32;16.80;;;10.73;;
55483;SDS011;41345;51.704;5.146;2023-03-01T03:48:33;17.30;;;11.65;;
55483;SDS011;41345;51.704;5.146;2023-03-01T03:53:33;16.75;;;12.30;;
55483;SDS011;41345;51.704;5.146;2023-03-01T03:58:34;14.40;;;11.35;;
55483;SDS011;41345;51.704;5.146;2023-03-01T04:03:34;17.10;;;11.65;;
55483;SDS011;41345;51.704;5.146;2023-03-01T04:08:35;19.67;;;11.25;;
55483;SDS011;41345;51.704;5.146;2023-03-01T04:13:35;15.70;;;11.32;;
55483;SDS011;41345;51.704;5.146;2023-03-01T04:18:36;15.10;;;10.98;;
55483;SDS011;41345;51.704;5.146;2023-03-01T04:23:36;16.02;;;11.30;;
55483;SDS011;41345;51.704;5.146;2023-03-01T04:28:40;14.10;;;9.90;;
55483;SDS011;41345;51.704;5.146;2023-03-01T04:33:46;15.98;;;9.90;;
55483;SDS011;41345;51.704;5.146;2023-03-01T04:38:46;15.45;;;11.38;;
55483;SDS011;41345;51.704;5.146;2023-03-01T04:43:50;15.35;;;10.43;;
55483;SDS011;41345;51.704;5.146;2023-03-01T04:48:50;14.75;;;10.25;;
55483;SDS011;41345;51.704;5.146;2023-03-01T04:53:50;15.52;;;10.90;;
55483;SDS011;41345;51.704;5.146;2023-03-01T04:58:52;14.93;;;10.30;;
55483;SDS011;41345;51.704;5.146;2023-03-01T05:03:53;15.50;;;11.38;;
55483;SDS011;41345;51.704;5.146;2023-03-01T05:08:53;16.92;;;12.00;;
55483;SDS011;41345;51.704;5.146;2023-03-01T05:13:53;17.40;;;12.18;;
55483;SDS011;41345;51.704;5.146;2023-03-01T05:18:54;16.45;;;11.93;;
55483;SDS011;41345;51.704;5.146;2023-03-01T05:23:55;15.57;;;11.18;;
55483;SDS011;41345;51.704;5.146;2023-03-01T05:28:55;18.00;;;11.98;;
55483;SDS011;41345;51.704;5.146;2023-03-01T05:33:59;18.73;;;12.98;;
55483;SDS011;41345;51.704;5.146;2023-03-01T05:38:59;16.05;;;12.07;;
55483;SDS011;41345;51.704;5.146;2023-03-01T05:44:00;19.47;;;12.40;;
55483;SDS011;41345;51.704;5.146;2023-03-01T05:49:00;20.05;;;11.85;;
55483;SDS011;41345;51.704;5.146;2023-03-01T05:54:00;20.23;;;13.38;;
55483;SDS011;41345;51.704;5.146;2023-03-01T05:59:01;16.75;;;12.52;;
55483;SDS011;41345;51.704;5.146;2023-03-01T06:04:02;15.90;;;12.10;;
55483;SDS011;41345;51.704;5.146;2023-03-01T06:09:02;16.20;;;12.05;;
55483;SDS011;41345;51.704;5.146;2023-03-01T06:14:03;16.58;;;11.35;;
55483;SDS011;41345;51.704;5.146;2023-03-01T06:19:03;17.38;;;10.80;;
55483;SDS011;41345;51.704;5.146;2023-03-01T06:24:04;16.45;;;10.88;;
55483;SDS011;41345;51.704;5.146;2023-03-01T06:29:07;17.75;;;11.90;;
55483;SDS011;41345;51.704;5.146;2023-03-01T06:34:08;14.63;;;11.27;;
55483;SDS011;41345;51.704;5.146;2023-03-01T06:39:10;15.05;;;9.40;;
55483;SDS011;41345;51.704;5.146;2023-03-01T06:44:11;14.40;;;10.30;;
55483;SDS011;41345;51.704;5.146;2023-03-01T06:49:11;14.73;;;9.63;;
55483;SDS011;41345;51.704;5.146;2023-03-01T06:54:12;16.23;;;10.20;;
55483;SDS011;41345;51.704;5.146;2023-03-01T06:59:12;19.50;;;12.73;;
55483;SDS011;41345;51.704;5.146;2023-03-01T07:04:13;17.90;;;13.68;;
55483;SDS011;41345;51.704;5.146;2023-03-01T07:09:13;16.80;;;13.35;;
55483;SDS011;41345;51.704;5.146;2023-03-01T07:14:13;19.08;;;14.35;;
55483;SDS011;41345;51.704;5.146;2023-03-01T07:19:14;21.02;;;14.85;;
55483;SDS011;41345;51.704;5.146;2023-03-01T07:24:14;18.40;;;13.90;;
55483;SDS011;41345;51.704;5.146;2023-03-01T07:29:14;16.60;;;12.57;;
55483;SDS011;41345;51.704;5.146;2023-03-01T07:34:15;16.63;;;12.93;;
55483;SDS011;41345;51.704;5.146;2023-03-01T07:39:15;18.90;;;14.02;;
55483;SDS011;41345;51.704;5.146;2023-03-01T07:44:15;17.88;;;15.95;;
55483;SDS011;41345;51.704;5.146;2023-03-01T07:49:17;19.27;;;15.48;;
55483;SDS011;41345;51.704;5.146;2023-03-01T07:54:17;20.85;;;15.73;;
55483;SDS011;41345;51.704;5.146;2023-03-01T07:59:18;23.42;;;14.50;;
55483;SDS011;41345;51.704;5.146;2023-03-01T08:04:18;20.88;;;15.07;;
55483;SDS011;41345;51.704;5.146;2023-03-01T08:09:18;21.98;;;15.95;;
55483;SDS011;41345;51.704;5.146;2023-03-01T08:14:18;20.65;;;15.95;;
55483;SDS011;41345;51.704;5.146;2023-03-01T08:19:19;20.45;;;16.52;;
55483;SDS011;41345;51.704;5.146;2023-03-01T08:24:19;18.27;;;14.23;;
55483;SDS011;41345;51.704;5.146;2023-03-01T08:29:20;17.80;;;13.45;;
55483;SDS011;41345;51.704;5.146;2023-03-01T08:34:20;21.60;;;11.90;;
55483;SDS011;41345;51.704;5.146;2023-03-01T08:39:20;15.65;;;10.60;;
55483;SDS011;41345;51.704;5.146;2023-03-01T08:44:20;16.55;;;10.05;;
55483;SDS011;41345;51.704;5.146;2023-03-01T08:49:21;16.05;;;9.82;;
55483;SDS011;41345;51.704;5.146;2023-03-01T08:54:21;14.30;;;8.65;;
55483;SDS011;41345;51.704;5.146;2023-03-01T08:59:21;13.98;;;9.10;;
55483;SDS011;41345;51.704;5.146;2023-03-01T09:04:22;14.63;;;8.40;;
55483;SDS011;41345;51.704;5.146;2023-03-01T09:09:22;12.47;;;7.70;;
55483;SDS011;41345;51.704;5.146;2023-03-01T09:14:22;11.85;;;6.93;;
55483;SDS011;41345;51.704;5.146;2023-03-01T09:19:23;12.60;;;7.07;;
55483;SDS011;41345;51.704;5.146;2023-03-01T09:24:24;11.70;;;6.88;;
55483;SDS011;41345;51.704;5.146;2023-03-01T09:29:24;12.85;;;7.18;;
55483;SDS011;41345;51.704;5.146;2023-03-01T09:34:25;11.25;;;6.55;;
55483;SDS011;41345;51.704;5.146;2023-03-01T09:39:26;9.88;;;6.65;;
55483;SDS011;41345;51.704;5.146;2023-03-01T09:44:38;13.40;;;6.18;;
55483;SDS011;41345;51.704;5.146;2023-03-01T09:49:40;11.05;;;6.25;;
55483;SDS011;41345;51.704;5.146;2023-03-01T09:54:41;11.50;;;5.78;;
55483;SDS011;41345;51.704;5.146;2023-03-01T10:04:49;12.55;;;6.47;;
55483;SDS011;41345;51.704;5.146;2023-03-01T10:09:49;11.15;;;6.22;;
55483;SDS011;41345;51.704;5.146;2023-03-01T10:19:51;8.75;;;5.55;;
55483;SDS011;41345;51.704;5.146;2023-03-01T10:24:51;10.05;;;6.28;;
55483;SDS011;41345;51.704;5.146;2023-03-01T10:35:18;8.70;;;5.70;;
55483;SDS011;41345;51.704;5.146;2023-03-01T10:40:19;9.57;;;5.60;;
55483;SDS011;41345;51.704;5.146;2023-03-01T10:50:32;11.23;;;5.93;;
55483;SDS011;41345;51.704;5.146;2023-03-01T10:55:39;9.40;;;5.78;;
55483;SDS011;41345;51.704;5.146;2023-03-01T11:05:57;15.27;;;6.28;;
55483;SDS011;41345;51.704;5.146;2023-03-01T11:16:22;11.60;;;6.20;;
55483;SDS011;41345;51.704;5.146;2023-03-01T11:21:23;11.27;;;6.65;;
55483;SDS011;41345;51.704;5.146;2023-03-01T11:26:24;10.48;;;5.72;;
55483;SDS011;41345;51.704;5.146;2023-03-01T11:31:24;12.38;;;6.10;;
55483;SDS011;41345;51.704;5.146;2023-03-01T11:36:40;10.52;;;5.97;;
55483;SDS011;41345;51.704;5.146;2023-03-01T11:41:42;11.38;;;6.40;;
55483;SDS011;41345;51.704;5.146;2023-03-01T11:56:57;11.32;;;6.95;;
55483;SDS011;41345;51.704;5.146;2023-03-01T12:07:00;11.25;;;6.53;;
55483;SDS011;41345;51.704;5.146;2023-03-01T12:17:16;10.52;;;6.55;;
55483;SDS011;41345;51.704;5.146;2023-03-01T12:22:24;10.70;;;5.93;;
55483;SDS011;41345;51.704;5.146;2023-03-01T12:37:33;11.02;;;5.95;;
55483;SDS011;41345;51.704;5.146;2023-03-01T12:48:01;11.05;;;6.30;;
55483;SDS011;41345;51.704;5.146;2023-03-01T12:53:07;10.23;;;5.80;;
55483;SDS011;41345;51.704;5.146;2023-03-01T13:08:40;10.57;;;5.85;;
55483;SDS011;41345;51.704;5.146;2023-03-01T13:13:41;10.23;;;6.18;;
55483;SDS011;41345;51.704;5.146;2023-03-01T13:18:42;11.23;;;6.32;;
55483;SDS011;41345;51.704;5.146;2023-03-01T13:23:43;10.60;;;6.30;;
55483;SDS011;41345;51.704;5.146;2023-03-01T13:28:51;12.98;;;6.63;;
55483;SDS011;41345;51.704;5.146;2023-03-01T13:38:55;10.38;;;5.93;;
55483;SDS011;41345;51.704;5.146;2023-03-01T13:43:59;11.32;;;6.38;;
55483;SDS011;41345;51.704;5.146;2023-03-01T13:48:59;10.75;;;5.70;;
55483;SDS011;41345;51.704;5.146;2023-03-01T13:54:00;9.75;;;5.50;;
55483;SDS011;41345;51.704;5.146;2023-03-01T13:59:01;9.63;;;5.22;;
55483;SDS011;41345;51.704;5.146;2023-03-01T14:04:14;8.63;;;4.55;;
55483;SDS011;41345;51.704;5.146;2023-03-01T14:09:18;14.38;;;5.10;;
55483;SDS011;41345;51.704;5.146;2023-03-01T14:19:26;10.98;;;5.05;;
55483;SDS011;41345;51.704;5.146;2023-03-01T14:24:28;9.90;;;5.68;;
55483;SDS011;41345;51.704;5.146;2023-03-01T14:29:36;8.98;;;5.20;;
55483;SDS011;41345;51.704;5.146;2023-03-01T14:34:38;9.45;;;5.78;;
55483;SDS011;41345;51.704;5.146;2023-03-01T14:39:42;13.15;;;6.15;;
55483;SDS011;41345;51.704;5.146;2023-03-01T14:44:43;9.55;;;5.03;;
55483;SDS011;41345;51.704;5.146;2023-03-01T14:49:44;8.35;;;5.28;;
55483;SDS011;41345;51.704;5.146;2023-03-01T14:54:48;9.70;;;5.28;;
55483;SDS011;41345;51.704;5.146;2023-03-01T14:59:49;8.82;;;5.18;;
55483;SDS011;41345;51.704;5.146;2023-03-01T15:04:54;12.65;;;5.57;;
55483;SDS011;41345;51.704;5.146;2023-03-01T15:09:57;9.57;;;6.00;;
55483;SDS011;41345;51.704;5.146;2023-03-01T15:14:57;9.10;;;5.28;;
55483;SDS011;41345;51.704;5.146;2023-03-01T15:19:58;7.78;;;4.95;;
55483;SDS011;41345;51.704;5.146;2023-03-01T15:24:58;10.00;;;5.32;;
55483;SDS011;41345;51.704;5.146;2023-03-01T15:29:59;7.82;;;4.72;;
55483;SDS011;41345;51.704;5.146;2023-03-01T15:35:01;11.18;;;4.82;;
55483;SDS011;41345;51.704;5.146;2023-03-01T15:45:24;8.32;;;4.72;;
55483;SDS011;41345;51.704;5.146;2023-03-01T15:50:27;7.68;;;4.70;;
55483;SDS011;41345;51.704;5.146;2023-03-01T15:55:29;10.50;;;5.38;;
55483;SDS011;41345;51.704;5.146;2023-03-01T16:00:30;8.55;;;5.00;;
55483;SDS011;41345;51.704;5.146;2023-03-01T16:05:31;10.20;;;5.20;;
55483;SDS011;41345;51.704;5.146;2023-03-01T16:10:32;8.07;;;4.90;;
55483;SDS011;41345;51.704;5.146;2023-03-01T16:15:33;8.80;;;5.03;;
55483;SDS011;41345;51.704;5.146;2023-03-01T16:20:36;12.02;;;5.40;;
55483;SDS011;41345;51.704;5.146;2023-03-01T16:25:36;10.17;;;5.20;;
55483;SDS011;41345;51.704;5.146;2023-03-01T16:30:37;9.65;;;5.10;;
55483;SDS011;41345;51.704;5.146;2023-03-01T16:35:39;10.18;;;4.80;;
55483;SDS011;41345;51.704;5.146;2023-03-01T16:40:39;11.40;;;5.22;;
55483;SDS011;41345;51.704;5.146;2023-03-01T16:45:46;11.18;;;5.22;;
55483;SDS011;41345;51.704;5.146;2023-03-01T16:50:55;12.03;;;5.53;;
55483;SDS011;41345;51.704;5.146;2023-03-01T16:55:55;9.27;;;5.60;;
55483;SDS011;41345;51.704;5.146;2023-03-01T17:00:56;11.00;;;5.68;;
55483;SDS011;41345;51.704;5.146;2023-03-01T17:05:56;12.13;;;5.43;;
55483;SDS011;41345;51.704;5.146;2023-03-01T17:11:01;12.35;;;5.53;;
55483;SDS011;41345;51.704;5.146;2023-03-01T17:16:06;10.07;;;6.07;;
55483;SDS011;41345;51.704;5.146;2023-03-01T17:21:07;11.48;;;5.75;;
55483;SDS011;41345;51.704;5.146;2023-03-01T17:26:07;11.75;;;5.60;;
55483;SDS011;41345;51.704;5.146;2023-03-01T17:31:08;12.27;;;5.80;;
55483;SDS011;41345;51.704;5.146;2023-03-01T17:36:08;10.63;;;5.87;;
55483;SDS011;41345;51.704;5.146;2023-03-01T17:41:08;10.30;;;5.30;;
55483;SDS011;41345;51.704;5.146;2023-03-01T17:46:11;12.07;;;5.32;;
55483;SDS011;41345;51.704;5.146;2023-03-01T17:51:11;12.65;;;5.60;;
55483;SDS011;41345;51.704;5.146;2023-03-01T17:56:11;9.20;;;5.40;;
55483;SDS011;41345;51.704;5.146;2023-03-01T18:01:14;9.45;;;4.85;;
55483;SDS011;41345;51.704;5.146;2023-03-01T18:06:18;9.73;;;5.55;;
55483;SDS011;41345;51.704;5.146;2023-03-01T18:11:18;10.38;;;5.53;;
55483;SDS011;41345;51.704;5.146;2023-03-01T18:16:19;11.30;;;5.63;;
55483;SDS011;41345;51.704;5.146;2023-03-01T18:21:20;9.65;;;5.18;;
55483;SDS011;41345;51.704;5.146;2023-03-01T18:26:21;10.52;;;5.70;;
55483;SDS011;41345;51.704;5.146;2023-03-01T18:31:24;9.77;;;5.50;;
55483;SDS011;41345;51.704;5.146;2023-03-01T18:36:25;12.18;;;5.45;;
55483;SDS011;41345;51.704;5.146;2023-03-01T18:41:26;10.55;;;5.28;;
55483;SDS011;41345;51.704;5.146;2023-03-01T18:46:27;10.48;;;5.30;;
55483;SDS011;41345;51.704;5.146;2023-03-01T18:51:27;11.03;;;5.43;;
55483;SDS011;41345;51.704;5.146;2023-03-01T18:56:28;10.85;;;5.80;;
55483;SDS011;41345;51.704;5.146;2023-03-01T19:01:29;11.10;;;5.53;;
55483;SDS011;41345;51.704;5.146;2023-03-01T19:06:30;11.15;;;5.95;;
55483;SDS011;41345;51.704;5.146;2023-03-01T19:11:31;8.90;;;5.45;;
55483;SDS011;41345;51.704;5.146;2023-03-01T19:16:34;9.68;;;5.78;;
55483;SDS011;41345;51.704;5.146;2023-03-01T19:21:34;12.55;;;6.75;;
55483;SDS011;41345;51.704;5.146;2023-03-01T19:26:35;16.48;;;8.57;;
55483;SDS011;41345;51.704;5.146;2023-03-01T19:31:36;16.65;;;9.30;;
55483;SDS011;41345;51.704;5.146;2023-03-01T19:36:37;12.48;;;6.75;;
55483;SDS011;41345;51.704;5.146;2023-03-01T19:41:37;8.57;;;4.85;;
55483;SDS011;41345;51.704;5.146;2023-03-01T19:46:38;14.20;;;5.50;;
55483;SDS011;41345;51.704;5.146;2023-03-01T19:51:38;10.20;;;5.20;;
55483;SDS011;41345;51.704;5.146;2023-03-01T19:56:39;10.00;;;5.07;;
55483;SDS011;41345;51.704;5.146;2023-03-01T20:01:39;10.85;;;6.10;;
55483;SDS011;41345;51.704;5.146;2023-03-01T20:06:45;10.55;;;5.93;;
55483;SDS011;41345;51.704;5.146;2023-03-01T20:11:46;10.30;;;5.97;;
55483;SDS011;41345;51.704;5.146;2023-03-01T20:16:46;12.23;;;5.72;;
55483;SDS011;41345;51.704;5.146;2023-03-01T20:21:46;8.93;;;5.07;;
55483;SDS011;41345;51.704;5.146;2023-03-01T20:26:47;15.63;;;5.70;;
55483;SDS011;41345;51.704;5.146;2023-03-01T20:31:47;11.77;;;5.72;;
55483;SDS011;41345;51.704;5.146;2023-03-01T20:36:47;10.35;;;5.57;;
55483;SDS011;41345;51.704;5.146;2023-03-01T20:41:48;15.02;;;6.32;;
55483;SDS011;41345;51.704;5.146;2023-03-01T20:46:48;10.45;;;5.93;;
55483;SDS011;41345;51.704;5.146;2023-03-01T20:51:49;14.23;;;6.30;;
55483;SDS011;41345;51.704;5.146;2023-03-01T20:56:49;13.82;;;6.18;;
55483;SDS011;41345;51.704;5.146;2023-03-01T21:01:50;11.32;;;6.15;;
55483;SDS011;41345;51.704;5.146;2023-03-01T21:06:50;11.63;;;6.05;;
55483;SDS011;41345;51.704;5.146;2023-03-01T21:11:50;13.40;;;6.80;;
55483;SDS011;41345;51.704;5.146;2023-03-01T21:16:51;11.63;;;6.80;;
55483;SDS011;41345;51.704;5.146;2023-03-01T21:21:51;10.65;;;6.53;;
55483;SDS011;41345;51.704;5.146;2023-03-01T21:26:51;15.23;;;8.05;;
55483;SDS011;41345;51.704;5.146;2023-03-01T21:31:52;14.83;;;8.33;;
55483;SDS011;41345;51.704;5.146;2023-03-01T21:36:52;14.43;;;7.90;;
55483;SDS011;41345;51.704;5.146;2023-03-01T21:41:52;12.07;;;7.75;;
55483;SDS011;41345;51.704;5.146;2023-03-01T21:46:53;12.40;;;7.90;;
55483;SDS011;41345;51.704;5.146;2023-03-01T21:51:53;13.68;;;7.82;;
55483;SDS011;41345;51.704;5.146;2023-03-01T21:56:53;11.93;;;7.47;;
55483;SDS011;41345;51.704;5.146;2023-03-01T22:01:55;14.95;;;9.25;;
55483;SDS011;41345;51.704;5.146;2023-03-01T22:06:55;11.63;;;6.60;;
55483;SDS011;41345;51.704;5.146;2023-03-01T22:11:56;12.73;;;6.88;;
55483;SDS011;41345;51.704;5.146;2023-03-01T22:17:02;11.90;;;7.15;;
55483;SDS011;41345;51.704;5.146;2023-03-01T22:22:03;11.82;;;6.68;;
55483;SDS011;41345;51.704;5.146;2023-03-01T22:27:03;12.38;;;6.85;;
55483;SDS011;41345;51.704;5.146;2023-03-01T22:32:03;15.38;;;7.15;;
55483;SDS011;41345;51.704;5.146;2023-03-01T22:37:04;14.38;;;6.72;;
55483;SDS011;41345;51.704;5.146;2023-03-01T22:42:04;16.25;;;7.53;;
55483;SDS011;41345;51.704;5.146;2023-03-01T22:47:05;14.15;;;7.38;;
55483;SDS011;41345;51.704;5.146;2023-03-01T22:52:05;14.40;;;7.20;;
55483;SDS011;41345;51.704;5.146;2023-03-01T22:57:05;14.00;;;6.93;;
55483;SDS011;41345;51.704;5.146;2023-03-01T23:02:08;13.07;;;7.40;;
55483;SDS011;41345;51.704;5.146;2023-03-01T23:07:08;14.00;;;7.85;;
55483;SDS011;41345;51.704;5.146;2023-03-01T23:12:08;13.43;;;7.88;;
55483;SDS011;41345;51.704;5.146;2023-03-01T23:17:09;13.25;;;7.95;;
55483;SDS011;41345;51.704;5.146;2023-03-01T23:22:11;15.73;;;8.68;;
55483;SDS011;41345;51.704;5.146;2023-03-01T23:27:12;15.10;;;8.07;;
55483;SDS011;41345;51.704;5.146;2023-03-01T23:32:14;15.15;;;9.38;;
55483;SDS011;41345;51.704;5.146;2023-03-01T23:37:15;13.23;;;8.23;;
55483;SDS011;41345;51.704;5.146;2023-03-01T23:42:15;13.73;;;8.30;;
55483;SDS011;41345;51.704;5.146;2023-03-01T23:47:15;14.50;;;8.30;;
55483;SDS011;41345;51.704;5.146;2023-03-01T23:52:15;15.35;;;7.28;;
55483;SDS011;41345;51.704;5.146;2023-03-01T23:57:16;13.82;;;8.50;;
